sensor_id;sensor_type;location;lat;lon;timestamp;temperature;humidity
19256;DHT22;9762;52.490;13.410;2023-12-07T00:00:39;8.10;95.50
19256;DHT22;9762;52.490;13.410;2023-12-07T00:03:05;8.10;95.50
19256;DHT22;9762;52.490;13.410;2023-12-07T00:05:32;8.00;95.50
19256;DHT22;9762;52.490;13.410;2023-12-07T00:07:58;8.00;95.40
19256;DHT22;9762;52.490;13.410;2023-12-07T00:10:24;8.00;95.50
19256;DHT22;9762;52.490;13.410;2023-12-07T00:12:50;8.00;95.60
19256;DHT22;9762;52.490;13.410;2023-12-07T00:15:15;8.00;95.70
19256;DHT22;9762;52.490;13.410;2023-12-07T00:17:41;8.00;95.50
19256;DHT22;9762;52.490;13.410;2023-12-07T00:20:07;8.00;95.50
19256;DHT22;9762;52.490;13.410;2023-12-07T00:22:33;7.90;95.70
19256;DHT22;9762;52.490;13.410;2023-12-07T00:24:59;8.00;95.80
19256;DHT22;9762;52.490;13.410;2023-12-07T00:27:24;7.90;95.70
19256;DHT22;9762;52.490;13.410;2023-12-07T00:29:50;8.00;95.70
19256;DHT22;9762;52.490;13.410;2023-12-07T00:32:16;7.90;95.60
19256;DHT22;9762;52.490;13.410;2023-12-07T00:34:43;7.90;95.90
19256;DHT22;9762;52.490;13.410;2023-12-07T00:37:08;8.00;96.00
19256;DHT22;9762;52.490;13.410;2023-12-07T00:39:35;8.00;95.90
19256;DHT22;9762;52.490;13.410;2023-12-07T00:42:01;8.00;95.80
19256;DHT22;9762;52.490;13.410;2023-12-07T00:44:28;8.00;95.60
19256;DHT22;9762;52.490;13.410;2023-12-07T00:46:54;8.00;95.60
19256;DHT22;9762;52.490;13.410;2023-12-07T00:49:19;8.00;95.80
19256;DHT22;9762;52.490;13.410;2023-12-07T00:51:45;8.00;95.90
19256;DHT22;9762;52.490;13.410;2023-12-07T00:54:10;8.00;95.90
19256;DHT22;9762;52.490;13.410;2023-12-07T00:56:36;8.00;95.80
19256;DHT22;9762;52.490;13.410;2023-12-07T00:59:02;8.00;95.90
19256;DHT22;9762;52.490;13.410;2023-12-07T01:01:28;8.10;95.90
19256;DHT22;9762;52.490;13.410;2023-12-07T01:03:54;8.00;95.60
19256;DHT22;9762;52.490;13.410;2023-12-07T01:06:19;8.10;95.70
19256;DHT22;9762;52.490;13.410;2023-12-07T01:08:45;8.10;95.70
19256;DHT22;9762;52.490;13.410;2023-12-07T01:11:11;8.10;95.60
19256;DHT22;9762;52.490;13.410;2023-12-07T01:13:36;8.10;95.50
19256;DHT22;9762;52.490;13.410;2023-12-07T01:16:02;8.10;95.70
19256;DHT22;9762;52.490;13.410;2023-12-07T01:18:27;8.10;95.50
19256;DHT22;9762;52.490;13.410;2023-12-07T01:20:53;8.10;95.50
19256;DHT22;9762;52.490;13.410;2023-12-07T01:23:19;8.10;95.70
19256;DHT22;9762;52.490;13.410;2023-12-07T01:25:44;8.20;95.70
19256;DHT22;9762;52.490;13.410;2023-12-07T01:28:10;8.20;95.70
19256;DHT22;9762;52.490;13.410;2023-12-07T01:30:35;8.20;95.50
19256;DHT22;9762;52.490;13.410;2023-12-07T01:33:01;8.20;95.40
19256;DHT22;9762;52.490;13.410;2023-12-07T01:35:27;8.20;95.50
19256;DHT22;9762;52.490;13.410;2023-12-07T01:37:54;8.20;95.40
19256;DHT22;9762;52.490;13.410;2023-12-07T01:40:19;8.20;95.50
19256;DHT22;9762;52.490;13.410;2023-12-07T01:42:52;8.20;95.50
19256;DHT22;9762;52.490;13.410;2023-12-07T01:45:19;8.20;95.30
19256;DHT22;9762;52.490;13.410;2023-12-07T01:47:46;8.10;95.20
19256;DHT22;9762;52.490;13.410;2023-12-07T01:50:13;8.10;95.20
19256;DHT22;9762;52.490;13.410;2023-12-07T01:52:47;8.00;95.10
19256;DHT22;9762;52.490;13.410;2023-12-07T01:55:14;7.90;95.40
19256;DHT22;9762;52.490;13.410;2023-12-07T01:57:43;7.90;95.40
19256;DHT22;9762;52.490;13.410;2023-12-07T02:00:11;7.90;95.50
19256;DHT22;9762;52.490;13.410;2023-12-07T02:02:37;7.80;95.60
19256;DHT22;9762;52.490;13.410;2023-12-07T02:05:04;7.80;95.60
19256;DHT22;9762;52.490;13.410;2023-12-07T02:07:30;7.80;95.80
19256;DHT22;9762;52.490;13.410;2023-12-07T02:09:57;7.80;95.80
19256;DHT22;9762;52.490;13.410;2023-12-07T02:12:24;7.80;95.80
19256;DHT22;9762;52.490;13.410;2023-12-07T02:14:51;7.80;95.80
19256;DHT22;9762;52.490;13.410;2023-12-07T02:22:49;7.70;95.90
19256;DHT22;9762;52.490;13.410;2023-12-07T02:25:18;7.70;95.90
19256;DHT22;9762;52.490;13.410;2023-12-07T02:27:46;7.80;95.80
19256;DHT22;9762;52.490;13.410;2023-12-07T02:30:12;7.70;95.90
19256;DHT22;9762;52.490;13.410;2023-12-07T02:32:40;7.70;96.00
19256;DHT22;9762;52.490;13.410;2023-12-07T02:35:07;7.60;96.00
19256;DHT22;9762;52.490;13.410;2023-12-07T02:37:43;7.70;96.00
19256;DHT22;9762;52.490;13.410;2023-12-07T02:40:10;7.70;96.00
19256;DHT22;9762;52.490;13.410;2023-12-07T02:42:37;7.60;96.20
19256;DHT22;9762;52.490;13.410;2023-12-07T02:45:04;7.60;96.20
19256;DHT22;9762;52.490;13.410;2023-12-07T02:47:30;7.60;96.20
19256;DHT22;9762;52.490;13.410;2023-12-07T02:49:56;7.60;96.30
19256;DHT22;9762;52.490;13.410;2023-12-07T02:52:21;7.60;96.40
19256;DHT22;9762;52.490;13.410;2023-12-07T02:54:47;7.60;96.40
19256;DHT22;9762;52.490;13.410;2023-12-07T02:57:13;7.60;96.30
19256;DHT22;9762;52.490;13.410;2023-12-07T02:59:40;7.70;96.40
19256;DHT22;9762;52.490;13.410;2023-12-07T03:02:06;7.70;96.40
19256;DHT22;9762;52.490;13.410;2023-12-07T03:04:32;7.70;96.30
19256;DHT22;9762;52.490;13.410;2023-12-07T03:06:58;7.70;96.10
19256;DHT22;9762;52.490;13.410;2023-12-07T03:09:24;7.70;95.90
19256;DHT22;9762;52.490;13.410;2023-12-07T03:11:50;7.60;95.90
19256;DHT22;9762;52.490;13.410;2023-12-07T03:14:16;7.60;96.00
19256;DHT22;9762;52.490;13.410;2023-12-07T03:16:41;7.60;96.00
19256;DHT22;9762;52.490;13.410;2023-12-07T03:19:07;7.60;96.40
19256;DHT22;9762;52.490;13.410;2023-12-07T03:21:32;7.70;96.00
19256;DHT22;9762;52.490;13.410;2023-12-07T03:23:58;7.60;95.80
19256;DHT22;9762;52.490;13.410;2023-12-07T03:26:23;7.60;95.80
19256;DHT22;9762;52.490;13.410;2023-12-07T03:28:49;7.60;95.90
19256;DHT22;9762;52.490;13.410;2023-12-07T03:31:15;7.60;96.00
19256;DHT22;9762;52.490;13.410;2023-12-07T03:33:44;7.60;96.10
19256;DHT22;9762;52.490;13.410;2023-12-07T03:36:13;7.60;96.10
19256;DHT22;9762;52.490;13.410;2023-12-07T03:38:38;7.70;96.10
19256;DHT22;9762;52.490;13.410;2023-12-07T03:41:04;7.70;96.00
19256;DHT22;9762;52.490;13.410;2023-12-07T03:43:30;7.70;96.00
19256;DHT22;9762;52.490;13.410;2023-12-07T03:45:55;7.70;95.90
19256;DHT22;9762;52.490;13.410;2023-12-07T03:48:21;7.70;95.80
19256;DHT22;9762;52.490;13.410;2023-12-07T03:50:47;7.60;95.90
19256;DHT22;9762;52.490;13.410;2023-12-07T03:53:12;7.60;95.80
19256;DHT22;9762;52.490;13.410;2023-12-07T03:55:38;7.60;95.90
19256;DHT22;9762;52.490;13.410;2023-12-07T03:58:04;7.60;95.80
19256;DHT22;9762;52.490;13.410;2023-12-07T04:00:31;7.60;95.80
19256;DHT22;9762;52.490;13.410;2023-12-07T04:02:57;7.60;95.70
19256;DHT22;9762;52.490;13.410;2023-12-07T04:05:23;7.60;95.90
19256;DHT22;9762;52.490;13.410;2023-12-07T04:07:49;7.60;95.80
19256;DHT22;9762;52.490;13.410;2023-12-07T04:10:15;7.60;95.90
19256;DHT22;9762;52.490;13.410;2023-12-07T04:12:40;7.70;96.10
19256;DHT22;9762;52.490;13.410;2023-12-07T04:15:06;7.70;96.00
19256;DHT22;9762;52.490;13.410;2023-12-07T04:17:32;7.70;95.80
19256;DHT22;9762;52.490;13.410;2023-12-07T04:19:58;7.70;95.90
19256;DHT22;9762;52.490;13.410;2023-12-07T04:22:23;7.70;95.70
19256;DHT22;9762;52.490;13.410;2023-12-07T04:24:49;7.70;95.70
19256;DHT22;9762;52.490;13.410;2023-12-07T04:27:15;7.80;95.80
19256;DHT22;9762;52.490;13.410;2023-12-07T04:29:41;7.80;95.70
19256;DHT22;9762;52.490;13.410;2023-12-07T04:32:07;7.80;95.60
19256;DHT22;9762;52.490;13.410;2023-12-07T04:34:33;7.80;95.70
19256;DHT22;9762;52.490;13.410;2023-12-07T04:36:59;7.70;95.60
19256;DHT22;9762;52.490;13.410;2023-12-07T04:39:25;7.80;95.80
19256;DHT22;9762;52.490;13.410;2023-12-07T04:41:50;7.80;95.70
19256;DHT22;9762;52.490;13.410;2023-12-07T04:44:16;7.80;95.30
19256;DHT22;9762;52.490;13.410;2023-12-07T04:46:42;7.80;95.40
19256;DHT22;9762;52.490;13.410;2023-12-07T04:49:08;7.70;95.50
19256;DHT22;9762;52.490;13.410;2023-12-07T04:51:34;7.70;95.50
19256;DHT22;9762;52.490;13.410;2023-12-07T04:54:00;7.70;95.30
19256;DHT22;9762;52.490;13.410;2023-12-07T04:56:25;7.70;95.40
19256;DHT22;9762;52.490;13.410;2023-12-07T04:58:51;7.60;95.30
19256;DHT22;9762;52.490;13.410;2023-12-07T05:01:17;7.60;95.50
19256;DHT22;9762;52.490;13.410;2023-12-07T05:03:44;7.60;95.50
19256;DHT22;9762;52.490;13.410;2023-12-07T05:06:10;7.60;95.60
19256;DHT22;9762;52.490;13.410;2023-12-07T05:08:36;7.60;95.70
19256;DHT22;9762;52.490;13.410;2023-12-07T05:11:01;7.60;95.90
19256;DHT22;9762;52.490;13.410;2023-12-07T05:13:27;7.60;95.90
19256;DHT22;9762;52.490;13.410;2023-12-07T05:15:53;7.70;95.90
19256;DHT22;9762;52.490;13.410;2023-12-07T05:18:18;7.70;96.00
19256;DHT22;9762;52.490;13.410;2023-12-07T05:20:44;7.70;95.90
19256;DHT22;9762;52.490;13.410;2023-12-07T05:23:10;7.80;95.90
19256;DHT22;9762;52.490;13.410;2023-12-07T05:25:35;7.80;96.00
19256;DHT22;9762;52.490;13.410;2023-12-07T05:28:01;7.90;96.20
19256;DHT22;9762;52.490;13.410;2023-12-07T05:30:27;7.90;96.00
19256;DHT22;9762;52.490;13.410;2023-12-07T05:32:53;7.90;95.90
19256;DHT22;9762;52.490;13.410;2023-12-07T05:35:19;8.00;95.80
19256;DHT22;9762;52.490;13.410;2023-12-07T05:37:45;8.00;95.70
19256;DHT22;9762;52.490;13.410;2023-12-07T05:40:11;8.00;95.80
19256;DHT22;9762;52.490;13.410;2023-12-07T05:42:38;8.00;95.70
19256;DHT22;9762;52.490;13.410;2023-12-07T05:45:04;8.00;95.60
19256;DHT22;9762;52.490;13.410;2023-12-07T05:47:31;8.10;95.90
19256;DHT22;9762;52.490;13.410;2023-12-07T05:49:57;8.10;95.60
19256;DHT22;9762;52.490;13.410;2023-12-07T05:52:25;8.10;95.20
19256;DHT22;9762;52.490;13.410;2023-12-07T05:54:51;8.10;95.30
19256;DHT22;9762;52.490;13.410;2023-12-07T05:57:16;8.00;95.30
19256;DHT22;9762;52.490;13.410;2023-12-07T05:59:42;8.00;95.40
19256;DHT22;9762;52.490;13.410;2023-12-07T06:02:08;8.00;95.40
19256;DHT22;9762;52.490;13.410;2023-12-07T06:04:34;8.00;95.50
19256;DHT22;9762;52.490;13.410;2023-12-07T06:07:00;8.00;95.90
19256;DHT22;9762;52.490;13.410;2023-12-07T06:09:26;8.00;95.30
19256;DHT22;9762;52.490;13.410;2023-12-07T06:11:51;8.00;95.40
19256;DHT22;9762;52.490;13.410;2023-12-07T06:14:17;8.00;95.40
19256;DHT22;9762;52.490;13.410;2023-12-07T06:16:42;8.00;95.40
19256;DHT22;9762;52.490;13.410;2023-12-07T06:19:08;8.00;95.30
19256;DHT22;9762;52.490;13.410;2023-12-07T06:21:34;7.90;95.40
19256;DHT22;9762;52.490;13.410;2023-12-07T06:23:59;7.90;95.40
19256;DHT22;9762;52.490;13.410;2023-12-07T06:26:25;7.90;95.30
19256;DHT22;9762;52.490;13.410;2023-12-07T06:28:51;7.80;95.40
19256;DHT22;9762;52.490;13.410;2023-12-07T06:31:17;7.80;95.50
19256;DHT22;9762;52.490;13.410;2023-12-07T06:33:47;7.80;95.50
19256;DHT22;9762;52.490;13.410;2023-12-07T06:36:18;7.80;95.60
19256;DHT22;9762;52.490;13.410;2023-12-07T06:38:45;7.80;95.70
19256;DHT22;9762;52.490;13.410;2023-12-07T06:41:10;7.80;95.70
19256;DHT22;9762;52.490;13.410;2023-12-07T06:43:36;7.80;95.80
19256;DHT22;9762;52.490;13.410;2023-12-07T06:46:01;7.80;95.80
19256;DHT22;9762;52.490;13.410;2023-12-07T06:48:27;7.90;95.80
19256;DHT22;9762;52.490;13.410;2023-12-07T06:50:53;7.90;95.90
19256;DHT22;9762;52.490;13.410;2023-12-07T06:53:18;7.90;95.70
19256;DHT22;9762;52.490;13.410;2023-12-07T06:55:44;8.00;95.40
19256;DHT22;9762;52.490;13.410;2023-12-07T06:58:10;7.90;95.20
19256;DHT22;9762;52.490;13.410;2023-12-07T07:00:35;7.90;95.30
19256;DHT22;9762;52.490;13.410;2023-12-07T07:03:02;7.90;95.40
19256;DHT22;9762;52.490;13.410;2023-12-07T07:05:27;8.00;95.60
19256;DHT22;9762;52.490;13.410;2023-12-07T07:07:53;8.00;95.60
19256;DHT22;9762;52.490;13.410;2023-12-07T07:10:21;8.00;95.70
19256;DHT22;9762;52.490;13.410;2023-12-07T07:12:46;8.10;95.70
19256;DHT22;9762;52.490;13.410;2023-12-07T07:15:12;8.10;95.50
19256;DHT22;9762;52.490;13.410;2023-12-07T07:17:38;8.10;95.10
19256;DHT22;9762;52.490;13.410;2023-12-07T07:20:04;8.10;95.20
19256;DHT22;9762;52.490;13.410;2023-12-07T07:22:30;8.10;95.20
19256;DHT22;9762;52.490;13.410;2023-12-07T07:24:56;8.10;95.30
19256;DHT22;9762;52.490;13.410;2023-12-07T07:27:21;8.10;95.30
19256;DHT22;9762;52.490;13.410;2023-12-07T07:29:47;8.10;95.40
19256;DHT22;9762;52.490;13.410;2023-12-07T07:32:13;8.10;95.20
19256;DHT22;9762;52.490;13.410;2023-12-07T07:34:38;8.10;95.30
19256;DHT22;9762;52.490;13.410;2023-12-07T07:37:05;8.10;95.40
19256;DHT22;9762;52.490;13.410;2023-12-07T07:39:32;8.20;95.40
19256;DHT22;9762;52.490;13.410;2023-12-07T07:41:58;8.20;95.10
19256;DHT22;9762;52.490;13.410;2023-12-07T07:44:23;8.20;95.00
19256;DHT22;9762;52.490;13.410;2023-12-07T07:46:49;8.30;94.90
19256;DHT22;9762;52.490;13.410;2023-12-07T07:49:15;8.30;94.70
19256;DHT22;9762;52.490;13.410;2023-12-07T07:51:40;8.40;94.80
19256;DHT22;9762;52.490;13.410;2023-12-07T07:54:06;8.40;94.60
19256;DHT22;9762;52.490;13.410;2023-12-07T07:56:32;8.40;94.60
19256;DHT22;9762;52.490;13.410;2023-12-07T07:58:57;8.40;94.60
19256;DHT22;9762;52.490;13.410;2023-12-07T08:01:26;8.40;94.50
19256;DHT22;9762;52.490;13.410;2023-12-07T08:03:51;8.30;94.30
19256;DHT22;9762;52.490;13.410;2023-12-07T08:06:17;8.30;94.30
19256;DHT22;9762;52.490;13.410;2023-12-07T08:08:43;8.30;94.40
19256;DHT22;9762;52.490;13.410;2023-12-07T08:11:09;8.30;94.30
19256;DHT22;9762;52.490;13.410;2023-12-07T08:13:34;8.40;94.50
19256;DHT22;9762;52.490;13.410;2023-12-07T08:16:00;8.40;94.40
19256;DHT22;9762;52.490;13.410;2023-12-07T08:18:26;8.50;94.50
19256;DHT22;9762;52.490;13.410;2023-12-07T08:20:51;8.50;94.50
19256;DHT22;9762;52.490;13.410;2023-12-07T08:23:17;8.50;94.70
19256;DHT22;9762;52.490;13.410;2023-12-07T08:25:42;8.50;94.20
19256;DHT22;9762;52.490;13.410;2023-12-07T08:28:09;8.50;94.20
19256;DHT22;9762;52.490;13.410;2023-12-07T08:30:35;8.50;94.10
19256;DHT22;9762;52.490;13.410;2023-12-07T08:33:01;8.60;94.10
19256;DHT22;9762;52.490;13.410;2023-12-07T08:35:27;8.50;93.80
19256;DHT22;9762;52.490;13.410;2023-12-07T08:37:53;8.60;93.90
19256;DHT22;9762;52.490;13.410;2023-12-07T08:40:19;8.50;93.60
19256;DHT22;9762;52.490;13.410;2023-12-07T08:42:45;8.50;93.90
19256;DHT22;9762;52.490;13.410;2023-12-07T08:45:11;8.50;93.90
19256;DHT22;9762;52.490;13.410;2023-12-07T08:47:39;8.60;94.10
19256;DHT22;9762;52.490;13.410;2023-12-07T08:50:05;8.70;94.00
19256;DHT22;9762;52.490;13.410;2023-12-07T08:52:33;8.60;94.00
19256;DHT22;9762;52.490;13.410;2023-12-07T08:54:58;8.70;94.10
19256;DHT22;9762;52.490;13.410;2023-12-07T08:57:24;8.70;93.90
19256;DHT22;9762;52.490;13.410;2023-12-07T08:59:50;8.70;93.60
19256;DHT22;9762;52.490;13.410;2023-12-07T09:02:15;8.60;93.60
19256;DHT22;9762;52.490;13.410;2023-12-07T09:04:41;8.60;93.60
19256;DHT22;9762;52.490;13.410;2023-12-07T09:07:07;8.60;93.80
19256;DHT22;9762;52.490;13.410;2023-12-07T09:09:32;8.70;93.70
19256;DHT22;9762;52.490;13.410;2023-12-07T09:11:58;8.60;93.60
19256;DHT22;9762;52.490;13.410;2023-12-07T09:14:24;8.60;93.50
19256;DHT22;9762;52.490;13.410;2023-12-07T09:16:51;8.60;93.70
19256;DHT22;9762;52.490;13.410;2023-12-07T09:19:17;8.60;93.90
19256;DHT22;9762;52.490;13.410;2023-12-07T09:21:43;8.60;94.00
19256;DHT22;9762;52.490;13.410;2023-12-07T09:24:09;8.60;93.90
19256;DHT22;9762;52.490;13.410;2023-12-07T09:26:35;8.70;93.90
19256;DHT22;9762;52.490;13.410;2023-12-07T09:29:02;8.70;93.80
19256;DHT22;9762;52.490;13.410;2023-12-07T09:31:28;8.70;94.00
19256;DHT22;9762;52.490;13.410;2023-12-07T09:33:53;8.80;94.00
19256;DHT22;9762;52.490;13.410;2023-12-07T09:36:19;8.80;94.10
19256;DHT22;9762;52.490;13.410;2023-12-07T09:38:47;8.90;94.10
19256;DHT22;9762;52.490;13.410;2023-12-07T09:41:12;8.90;93.70
19256;DHT22;9762;52.490;13.410;2023-12-07T09:43:38;8.90;93.80
19256;DHT22;9762;52.490;13.410;2023-12-07T09:46:05;9.00;93.80
19256;DHT22;9762;52.490;13.410;2023-12-07T09:48:31;9.10;93.70
19256;DHT22;9762;52.490;13.410;2023-12-07T09:50:59;9.10;93.60
19256;DHT22;9762;52.490;13.410;2023-12-07T09:53:28;9.10;93.60
19256;DHT22;9762;52.490;13.410;2023-12-07T09:55:54;9.10;93.20
19256;DHT22;9762;52.490;13.410;2023-12-07T09:58:20;9.10;93.10
19256;DHT22;9762;52.490;13.410;2023-12-07T10:00:47;9.10;93.00
19256;DHT22;9762;52.490;13.410;2023-12-07T10:03:23;9.00;92.90
19256;DHT22;9762;52.490;13.410;2023-12-07T10:08:34;8.90;93.20
19256;DHT22;9762;52.490;13.410;2023-12-07T10:11:09;8.90;93.30
19256;DHT22;9762;52.490;13.410;2023-12-07T10:13:36;8.90;93.40
19256;DHT22;9762;52.490;13.410;2023-12-07T10:16:12;8.80;93.20
19256;DHT22;9762;52.490;13.410;2023-12-07T10:18:40;8.80;93.30
19256;DHT22;9762;52.490;13.410;2023-12-07T10:21:07;8.80;93.40
19256;DHT22;9762;52.490;13.410;2023-12-07T10:23:35;8.80;93.60
19256;DHT22;9762;52.490;13.410;2023-12-07T10:26:00;8.80;93.50
19256;DHT22;9762;52.490;13.410;2023-12-07T10:28:27;8.80;93.60
19256;DHT22;9762;52.490;13.410;2023-12-07T10:30:52;8.90;93.80
19256;DHT22;9762;52.490;13.410;2023-12-07T10:33:19;8.90;93.80
19256;DHT22;9762;52.490;13.410;2023-12-07T10:35:46;8.90;93.60
19256;DHT22;9762;52.490;13.410;2023-12-07T10:38:13;8.90;93.80
19256;DHT22;9762;52.490;13.410;2023-12-07T10:40:39;8.90;94.00
19256;DHT22;9762;52.490;13.410;2023-12-07T10:43:08;8.90;93.70
19256;DHT22;9762;52.490;13.410;2023-12-07T10:45:35;8.90;94.10
19256;DHT22;9762;52.490;13.410;2023-12-07T10:48:08;8.90;93.80
19256;DHT22;9762;52.490;13.410;2023-12-07T10:50:41;8.90;93.50
19256;DHT22;9762;52.490;13.410;2023-12-07T10:53:33;8.90;93.60
19256;DHT22;9762;52.490;13.410;2023-12-07T10:55:57;8.80;93.70
19256;DHT22;9762;52.490;13.410;2023-12-07T10:58:25;8.80;93.80
19256;DHT22;9762;52.490;13.410;2023-12-07T11:00:55;8.80;93.70
19256;DHT22;9762;52.490;13.410;2023-12-07T11:03:21;8.80;93.80
19256;DHT22;9762;52.490;13.410;2023-12-07T11:05:48;8.90;93.80
19256;DHT22;9762;52.490;13.410;2023-12-07T11:13:26;8.90;93.90
19256;DHT22;9762;52.490;13.410;2023-12-07T11:15:53;9.00;93.60
19256;DHT22;9762;52.490;13.410;2023-12-07T11:18:18;9.00;93.90
19256;DHT22;9762;52.490;13.410;2023-12-07T11:20:45;9.10;93.90
19256;DHT22;9762;52.490;13.410;2023-12-07T11:23:16;9.10;93.80
19256;DHT22;9762;52.490;13.410;2023-12-07T11:25:43;9.20;94.00
19256;DHT22;9762;52.490;13.410;2023-12-07T11:28:11;9.20;93.70
19256;DHT22;9762;52.490;13.410;2023-12-07T11:30:37;9.20;93.50
19256;DHT22;9762;52.490;13.410;2023-12-07T11:33:04;9.20;93.50
19256;DHT22;9762;52.490;13.410;2023-12-07T11:35:30;9.20;93.40
19256;DHT22;9762;52.490;13.410;2023-12-07T11:38:09;9.10;93.40
19256;DHT22;9762;52.490;13.410;2023-12-07T11:40:43;9.20;93.70
19256;DHT22;9762;52.490;13.410;2023-12-07T11:44:03;9.20;93.80
19256;DHT22;9762;52.490;13.410;2023-12-07T11:46:06;9.20;93.70
19256;DHT22;9762;52.490;13.410;2023-12-07T11:48:32;9.20;93.60
19256;DHT22;9762;52.490;13.410;2023-12-07T11:51:02;9.10;92.30
19256;DHT22;9762;52.490;13.410;2023-12-07T11:53:32;9.10;92.20
19256;DHT22;9762;52.490;13.410;2023-12-07T11:55:59;9.10;92.00
19256;DHT22;9762;52.490;13.410;2023-12-07T11:58:27;9.10;91.90
19256;DHT22;9762;52.490;13.410;2023-12-07T12:00:54;9.10;91.80
19256;DHT22;9762;52.490;13.410;2023-12-07T12:03:23;9.00;91.90
19256;DHT22;9762;52.490;13.410;2023-12-07T12:05:49;9.00;92.00
19256;DHT22;9762;52.490;13.410;2023-12-07T12:08:16;9.10;92.00
19256;DHT22;9762;52.490;13.410;2023-12-07T12:10:42;9.00;92.00
19256;DHT22;9762;52.490;13.410;2023-12-07T12:13:10;9.00;92.20
19256;DHT22;9762;52.490;13.410;2023-12-07T12:15:38;9.00;92.30
19256;DHT22;9762;52.490;13.410;2023-12-07T12:18:05;9.00;92.50
19256;DHT22;9762;52.490;13.410;2023-12-07T12:20:31;9.00;92.60
19256;DHT22;9762;52.490;13.410;2023-12-07T12:22:58;9.00;92.70
19256;DHT22;9762;52.490;13.410;2023-12-07T12:25:26;9.00;92.50
19256;DHT22;9762;52.490;13.410;2023-12-07T12:27:54;9.10;92.60
19256;DHT22;9762;52.490;13.410;2023-12-07T12:30:21;9.00;92.20
19256;DHT22;9762;52.490;13.410;2023-12-07T12:32:48;9.10;92.60
19256;DHT22;9762;52.490;13.410;2023-12-07T12:35:14;9.10;92.20
19256;DHT22;9762;52.490;13.410;2023-12-07T12:37:44;9.10;92.40
19256;DHT22;9762;52.490;13.410;2023-12-07T12:40:11;9.00;92.50
19256;DHT22;9762;52.490;13.410;2023-12-07T12:42:37;9.10;92.70
19256;DHT22;9762;52.490;13.410;2023-12-07T12:45:08;9.10;92.80
19256;DHT22;9762;52.490;13.410;2023-12-07T12:47:36;9.10;92.50
19256;DHT22;9762;52.490;13.410;2023-12-07T12:50:02;9.10;92.40
19256;DHT22;9762;52.490;13.410;2023-12-07T12:52:32;9.10;92.50
19256;DHT22;9762;52.490;13.410;2023-12-07T12:54:58;9.20;92.70
19256;DHT22;9762;52.490;13.410;2023-12-07T12:57:24;9.20;92.70
19256;DHT22;9762;52.490;13.410;2023-12-07T12:59:53;9.30;92.70
19256;DHT22;9762;52.490;13.410;2023-12-07T13:02:20;9.30;92.70
19256;DHT22;9762;52.490;13.410;2023-12-07T13:04:46;9.30;92.70
19256;DHT22;9762;52.490;13.410;2023-12-07T13:07:13;9.30;92.50
19256;DHT22;9762;52.490;13.410;2023-12-07T13:09:41;9.30;92.40
19256;DHT22;9762;52.490;13.410;2023-12-07T13:12:09;9.30;92.40
19256;DHT22;9762;52.490;13.410;2023-12-07T13:14:35;9.30;92.30
19256;DHT22;9762;52.490;13.410;2023-12-07T13:17:01;9.30;92.30
19256;DHT22;9762;52.490;13.410;2023-12-07T13:19:29;9.20;92.40
19256;DHT22;9762;52.490;13.410;2023-12-07T13:21:55;9.30;92.40
19256;DHT22;9762;52.490;13.410;2023-12-07T13:24:20;9.30;92.20
19256;DHT22;9762;52.490;13.410;2023-12-07T13:26:46;9.30;92.20
19256;DHT22;9762;52.490;13.410;2023-12-07T13:29:13;9.20;92.40
19256;DHT22;9762;52.490;13.410;2023-12-07T13:31:38;9.20;92.30
19256;DHT22;9762;52.490;13.410;2023-12-07T13:34:04;9.20;92.40
19256;DHT22;9762;52.490;13.410;2023-12-07T13:36:30;9.20;92.50
19256;DHT22;9762;52.490;13.410;2023-12-07T13:38:57;9.20;92.50
19256;DHT22;9762;52.490;13.410;2023-12-07T13:41:23;9.20;92.40
19256;DHT22;9762;52.490;13.410;2023-12-07T13:43:49;9.20;92.40
19256;DHT22;9762;52.490;13.410;2023-12-07T13:46:16;9.20;92.60
19256;DHT22;9762;52.490;13.410;2023-12-07T13:48:42;9.20;92.50
19256;DHT22;9762;52.490;13.410;2023-12-07T13:51:08;9.10;92.50
19256;DHT22;9762;52.490;13.410;2023-12-07T13:53:34;9.20;92.60
19256;DHT22;9762;52.490;13.410;2023-12-07T13:56:00;9.10;92.50
19256;DHT22;9762;52.490;13.410;2023-12-07T13:58:26;9.10;92.60
19256;DHT22;9762;52.490;13.410;2023-12-07T14:00:51;9.10;92.70
19256;DHT22;9762;52.490;13.410;2023-12-07T14:03:17;9.10;92.80
19256;DHT22;9762;52.490;13.410;2023-12-07T14:05:43;9.10;92.90
19256;DHT22;9762;52.490;13.410;2023-12-07T14:08:08;9.20;93.00
19256;DHT22;9762;52.490;13.410;2023-12-07T14:10:34;9.20;92.90
19256;DHT22;9762;52.490;13.410;2023-12-07T14:13:01;9.20;93.00
19256;DHT22;9762;52.490;13.410;2023-12-07T14:15:27;9.30;93.10
19256;DHT22;9762;52.490;13.410;2023-12-07T14:17:52;9.30;92.90
19256;DHT22;9762;52.490;13.410;2023-12-07T14:20:18;9.30;93.00
19256;DHT22;9762;52.490;13.410;2023-12-07T14:22:46;9.30;92.90
19256;DHT22;9762;52.490;13.410;2023-12-07T14:25:12;9.30;92.90
19256;DHT22;9762;52.490;13.410;2023-12-07T14:27:37;9.30;92.80
19256;DHT22;9762;52.490;13.410;2023-12-07T14:30:03;9.20;92.90
19256;DHT22;9762;52.490;13.410;2023-12-07T14:32:29;9.30;93.10
19256;DHT22;9762;52.490;13.410;2023-12-07T14:34:55;9.30;93.10
19256;DHT22;9762;52.490;13.410;2023-12-07T14:37:21;9.30;93.00
19256;DHT22;9762;52.490;13.410;2023-12-07T14:39:46;9.30;93.10
19256;DHT22;9762;52.490;13.410;2023-12-07T14:42:12;9.30;93.10
19256;DHT22;9762;52.490;13.410;2023-12-07T14:44:38;9.30;93.20
19256;DHT22;9762;52.490;13.410;2023-12-07T14:47:04;9.30;93.20
19256;DHT22;9762;52.490;13.410;2023-12-07T14:49:29;9.40;93.20
19256;DHT22;9762;52.490;13.410;2023-12-07T14:51:55;9.40;93.30
19256;DHT22;9762;52.490;13.410;2023-12-07T14:54:22;9.40;93.10
19256;DHT22;9762;52.490;13.410;2023-12-07T14:56:47;9.40;93.20
19256;DHT22;9762;52.490;13.410;2023-12-07T14:59:14;9.40;93.00
19256;DHT22;9762;52.490;13.410;2023-12-07T15:01:40;9.40;93.10
19256;DHT22;9762;52.490;13.410;2023-12-07T15:04:08;9.30;93.40
19256;DHT22;9762;52.490;13.410;2023-12-07T15:06:34;9.30;93.40
19256;DHT22;9762;52.490;13.410;2023-12-07T15:09:00;9.40;93.30
19256;DHT22;9762;52.490;13.410;2023-12-07T15:11:26;9.30;93.30
19256;DHT22;9762;52.490;13.410;2023-12-07T15:13:52;9.30;93.40
19256;DHT22;9762;52.490;13.410;2023-12-07T15:16:18;9.30;93.50
19256;DHT22;9762;52.490;13.410;2023-12-07T15:18:43;9.40;93.50
19256;DHT22;9762;52.490;13.410;2023-12-07T15:21:13;9.40;93.60
19256;DHT22;9762;52.490;13.410;2023-12-07T15:23:42;9.40;93.60
19256;DHT22;9762;52.490;13.410;2023-12-07T15:26:09;9.40;93.50
19256;DHT22;9762;52.490;13.410;2023-12-07T15:28:42;9.50;93.50
19256;DHT22;9762;52.490;13.410;2023-12-07T15:31:07;9.50;93.50
19256;DHT22;9762;52.490;13.410;2023-12-07T15:33:34;9.50;93.20
19256;DHT22;9762;52.490;13.410;2023-12-07T15:36:01;9.60;93.30
19256;DHT22;9762;52.490;13.410;2023-12-07T15:38:29;9.60;93.40
19256;DHT22;9762;52.490;13.410;2023-12-07T15:40:55;9.60;93.20
19256;DHT22;9762;52.490;13.410;2023-12-07T15:43:26;9.60;93.10
19256;DHT22;9762;52.490;13.410;2023-12-07T15:45:51;9.60;93.10
19256;DHT22;9762;52.490;13.410;2023-12-07T15:48:18;9.60;93.20
19256;DHT22;9762;52.490;13.410;2023-12-07T15:50:48;9.60;93.20
19256;DHT22;9762;52.490;13.410;2023-12-07T15:53:14;9.60;93.10